Time;durP1;ratioP1;P1;durP2;ratioP2;P2;SDS_P1;SDS_P2;PMS_P1;PMS_P2;Temp;Humidity;BMP_temperature;BMP_pressure;BME280_temperature;BME280_humidity;BME280_pressure;Samples;Min_cycle;Max_cycle;Signal;HPM_P1;HPM_P2
2024/03/07 00:01:09;;;;;;;41.45;23.92;;;;;;;;;;5082353;28;20135;-74
2024/03/07 00:03:36;;;;;;;41.08;24.13;;;;;;;;;;5067316;28;20048;-75
2024/03/07 00:06:03;;;;;;;43.60;25.00;;;;;;;;;;5059904;28;20106;-75
2024/03/07 00:08:30;;;;;;;43.50;25.02;;;;;;;;;;5077319;28;20389;-75
2024/03/07 00:10:57;;;;;;;46.20;25.13;;;;;;;;;;5069672;28;20715;-74
2024/03/07 00:13:23;;;;;;;43.17;23.60;;;;;;;;;;5069753;28;20382;-74
2024/03/07 00:15:50;;;;;;;43.97;24.88;;;;;;;;;;5064763;28;20045;-75
2024/03/07 00:18:16;;;;;;;46.10;24.58;;;;;;;;;;5065454;28;20048;-75
2024/03/07 00:20:43;;;;;;;46.15;25.52;;;;;;;;;;5081489;28;20101;-75
2024/03/07 00:23:09;;;;;;;46.33;25.50;;;;;;;;;;5083197;28;20048;-75
2024/03/07 00:25:36;;;;;;;47.00;26.50;;;;;;;;;;5075412;28;20048;-76
2024/03/07 00:28:03;;;;;;;44.67;24.85;;;;;;;;;;5047247;28;20066;-76
2024/03/07 00:30:29;;;;;;;48.05;25.35;;;;;;;;;;5077210;28;20174;-75
2024/03/07 00:32:57;;;;;;;39.08;23.95;;;;;;;;;;5076280;28;20093;-75
2024/03/07 00:35:24;;;;;;;45.17;26.05;;;;;;;;;;5065230;28;20116;-76
2024/03/07 00:37:51;;;;;;;47.78;25.27;;;;;;;;;;5054379;28;20051;-75
2024/03/07 00:40:17;;;;;;;44.20;25.23;;;;;;;;;;5075222;28;20055;-75
2024/03/07 00:42:44;;;;;;;43.40;25.67;;;;;;;;;;5047417;28;20445;-75
2024/03/07 00:45:11;;;;;;;48.67;26.60;;;;;;;;;;5065360;28;20405;-75
2024/03/07 00:47:38;;;;;;;47.67;25.63;;;;;;;;;;5081684;28;20105;-75
2024/03/07 00:50:05;;;;;;;44.60;25.05;;;;;;;;;;5084946;28;20044;-75
2024/03/07 00:52:32;;;;;;;42.50;24.05;;;;;;;;;;5068623;28;20393;-75
2024/03/07 00:54:58;;;;;;;42.40;24.85;;;;;;;;;;5077549;28;20055;-75
2024/03/07 00:57:25;;;;;;;45.20;25.45;;;;;;;;;;5059990;28;20131;-75
2024/03/07 00:59:51;;;;;;;49.75;26.40;;;;;;;;;;5067677;28;20047;-74
2024/03/07 01:02:18;;;;;;;45.40;25.08;;;;;;;;;;5071589;28;20076;-75
2024/03/07 01:04:44;;;;;;;45.17;26.08;;;;;;;;;;5067919;28;20044;-75
2024/03/07 01:07:11;;;;;;;49.78;27.25;;;;;;;;;;5073708;28;20102;-75
2024/03/07 01:09:37;;;;;;;46.22;26.05;;;;;;;;;;5070100;28;20051;-75
2024/03/07 01:12:05;;;;;;;50.72;26.30;;;;;;;;;;5069851;28;20072;-75
2024/03/07 01:14:32;;;;;;;47.45;26.25;;;;;;;;;;5050850;28;20106;-75
2024/03/07 01:16:58;;;;;;;50.20;27.17;;;;;;;;;;5059542;28;20055;-75
2024/03/07 01:19:25;;;;;;;44.72;25.58;;;;;;;;;;5084276;28;20094;-75
2024/03/07 01:21:51;;;;;;;45.42;25.17;;;;;;;;;;5060121;28;20556;-74
2024/03/07 01:24:20;;;;;;;46.33;25.20;;;;;;;;;;5074319;28;20047;-74
2024/03/07 01:26:47;;;;;;;45.38;26.42;;;;;;;;;;5051784;28;20625;-74
2024/03/07 01:29:14;;;;;;;47.35;24.77;;;;;;;;;;5079517;28;20071;-74
2024/03/07 01:31:42;;;;;;;51.17;28.98;;;;;;;;;;5071947;28;20071;-73
2024/03/07 01:34:09;;;;;;;48.63;26.58;;;;;;;;;;5056072;28;20048;-72
2024/03/07 01:36:35;;;;;;;47.83;26.88;;;;;;;;;;5064859;28;20079;-72
2024/03/07 01:39:03;;;;;;;52.65;27.65;;;;;;;;;;5065100;28;20117;-72
2024/03/07 01:41:30;;;;;;;47.83;27.63;;;;;;;;;;5056437;28;20492;-72
2024/03/07 01:43:56;;;;;;;50.47;26.85;;;;;;;;;;5077976;28;20059;-73
2024/03/07 01:46:22;;;;;;;52.58;27.13;;;;;;;;;;5073887;28;20220;-72
2024/03/07 01:48:49;;;;;;;49.05;27.48;;;;;;;;;;5053416;28;20093;-72
2024/03/07 01:51:16;;;;;;;50.80;28.05;;;;;;;;;;5089712;28;20043;-72
2024/03/07 01:53:42;;;;;;;48.78;26.05;;;;;;;;;;5077772;28;20053;-71
2024/03/07 01:56:09;;;;;;;51.55;26.70;;;;;;;;;;5086803;28;20055;-72
2024/03/07 01:58:36;;;;;;;46.88;27.08;;;;;;;;;;5083707;28;20048;-73
2024/03/07 02:01:02;;;;;;;46.58;26.77;;;;;;;;;;5071953;28;20517;-72
2024/03/07 02:03:29;;;;;;;51.30;27.20;;;;;;;;;;5079101;28;20396;-72
2024/03/07 02:05:56;;;;;;;54.17;27.27;;;;;;;;;;5078394;28;20137;-74
2024/03/07 02:08:22;;;;;;;43.78;26.33;;;;;;;;;;5081060;28;20146;-72
2024/03/07 02:10:49;;;;;;;51.72;27.17;;;;;;;;;;5090007;28;20123;-71
2024/03/07 02:13:16;;;;;;;53.13;27.60;;;;;;;;;;5084346;28;20067;-73
2024/03/07 02:15:42;;;;;;;47.22;26.08;;;;;;;;;;5056722;28;20131;-72
2024/03/07 02:18:10;;;;;;;53.97;28.27;;;;;;;;;;5082637;28;20070;-73
2024/03/07 02:20:37;;;;;;;45.72;25.23;;;;;;;;;;5064089;28;20052;-73
2024/03/07 02:23:04;;;;;;;50.85;27.95;;;;;;;;;;5064859;28;20567;-72
2024/03/07 02:25:31;;;;;;;48.25;27.17;;;;;;;;;;5089748;28;20446;-73
2024/03/07 02:27:58;;;;;;;51.13;26.52;;;;;;;;;;5067670;28;20617;-72
2024/03/07 02:30:24;;;;;;;50.75;28.42;;;;;;;;;;5061275;28;20082;-73
2024/03/07 02:32:51;;;;;;;50.35;28.65;;;;;;;;;;5096801;28;20093;-72
2024/03/07 02:35:19;;;;;;;51.97;28.17;;;;;;;;;;5065564;28;20079;-71
2024/03/07 02:37:48;;;;;;;51.20;28.83;;;;;;;;;;5049941;28;20052;-72
2024/03/07 02:40:16;;;;;;;50.03;28.45;;;;;;;;;;5071185;28;20052;-72
2024/03/07 02:42:43;;;;;;;52.53;27.02;;;;;;;;;;5055647;28;20049;-74
2024/03/07 02:45:10;;;;;;;53.95;29.35;;;;;;;;;;5060641;28;20076;-74
2024/03/07 02:47:38;;;;;;;52.83;28.00;;;;;;;;;;5086159;28;20052;-75
2024/03/07 02:50:06;;;;;;;51.90;27.23;;;;;;;;;;5060744;28;20060;-75
2024/03/07 02:52:32;;;;;;;50.78;27.27;;;;;;;;;;5072796;28;20067;-75
2024/03/07 02:54:59;;;;;;;50.67;27.90;;;;;;;;;;5064643;28;20056;-75
2024/03/07 02:57:25;;;;;;;47.85;26.38;;;;;;;;;;5060059;28;20055;-75
2024/03/07 02:59:51;;;;;;;54.20;28.60;;;;;;;;;;5060435;28;20056;-75
2024/03/07 03:02:18;;;;;;;49.20;28.08;;;;;;;;;;5061286;28;20080;-75
2024/03/07 03:04:44;;;;;;;48.25;26.75;;;;;;;;;;5061811;28;20067;-75
2024/03/07 03:07:11;;;;;;;52.67;26.88;;;;;;;;;;5061077;28;20396;-75
2024/03/07 03:09:43;;;;;;;56.78;27.50;;;;;;;;;;5074977;28;20044;-75
2024/03/07 03:12:10;;;;;;;51.90;28.98;;;;;;;;;;5074063;28;20048;-75
2024/03/07 03:14:37;;;;;;;51.78;26.65;;;;;;;;;;5063791;28;20052;-75
2024/03/07 03:17:04;;;;;;;55.17;27.63;;;;;;;;;;5086721;28;20043;-75
2024/03/07 03:19:30;;;;;;;46.47;27.15;;;;;;;;;;5061131;28;20064;-76
2024/03/07 03:21:57;;;;;;;50.58;26.60;;;;;;;;;;5069004;28;20113;-75
2024/03/07 03:24:23;;;;;;;45.67;25.92;;;;;;;;;;5072806;28;20072;-75
2024/03/07 03:26:49;;;;;;;47.83;27.30;;;;;;;;;;5073282;28;20048;-75
2024/03/07 03:29:18;;;;;;;55.58;27.73;;;;;;;;;;5059925;28;20063;-75
2024/03/07 03:31:44;;;;;;;53.70;28.80;;;;;;;;;;5064359;28;20813;-75
2024/03/07 03:34:11;;;;;;;54.03;29.67;;;;;;;;;;5061103;28;20056;-74
2024/03/07 03:36:38;;;;;;;53.05;27.77;;;;;;;;;;5078945;28;20208;-74
2024/03/07 03:39:06;;;;;;;55.22;27.52;;;;;;;;;;5074689;28;20718;-74
2024/03/07 03:41:33;;;;;;;55.83;28.20;;;;;;;;;;5069460;28;20048;-74
2024/03/07 03:43:59;;;;;;;51.17;27.52;;;;;;;;;;5063039;28;20043;-74
2024/03/07 03:46:26;;;;;;;53.50;28.83;;;;;;;;;;5085361;28;20739;-74
2024/03/07 03:48:52;;;;;;;53.13;29.30;;;;;;;;;;5061518;28;20056;-74
2024/03/07 03:51:20;;;;;;;54.90;28.25;;;;;;;;;;5073606;28;20056;-74
2024/03/07 03:53:47;;;;;;;55.97;27.60;;;;;;;;;;5059561;28;20048;-71
2024/03/07 03:56:15;;;;;;;49.83;26.40;;;;;;;;;;5052950;28;20053;-71
2024/03/07 03:58:44;;;;;;;46.75;28.10;;;;;;;;;;5086445;28;20043;-71
2024/03/07 04:01:13;;;;;;;48.38;26.85;;;;;;;;;;5058261;28;20653;-71
2024/03/07 04:03:40;;;;;;;50.03;27.65;;;;;;;;;;5076740;28;20040;-72
2024/03/07 04:06:07;;;;;;;51.78;26.35;;;;;;;;;;5068465;28;20416;-71
2024/03/07 04:08:36;;;;;;;55.22;28.70;;;;;;;;;;5055160;28;20056;-72
2024/03/07 04:11:03;;;;;;;47.97;26.83;;;;;;;;;;5070499;28;20052;-71
2024/03/07 04:13:31;;;;;;;53.50;28.27;;;;;;;;;;5061211;28;20053;-71
2024/03/07 04:15:59;;;;;;;46.33;26.98;;;;;;;;;;5067320;28;20093;-72
2024/03/07 04:18:26;;;;;;;47.42;27.63;;;;;;;;;;5076666;28;20063;-72
2024/03/07 04:20:54;;;;;;;53.92;27.40;;;;;;;;;;5063033;28;20055;-72
2024/03/07 04:23:20;;;;;;;51.60;28.67;;;;;;;;;;5060334;28;20538;-73
2024/03/07 04:25:47;;;;;;;51.30;27.52;;;;;;;;;;5062758;28;20043;-73
2024/03/07 04:28:14;;;;;;;47.88;26.83;;;;;;;;;;5078424;28;20047;-73
2024/03/07 04:30:41;;;;;;;49.97;27.08;;;;;;;;;;5064698;28;20052;-72
2024/03/07 04:33:08;;;;;;;50.53;27.40;;;;;;;;;;5078513;28;20407;-73
2024/03/07 04:35:35;;;;;;;54.88;28.20;;;;;;;;;;5067376;28;20037;-72
2024/03/07 04:38:03;;;;;;;48.78;26.90;;;;;;;;;;5065867;28;20044;-72
2024/03/07 04:40:29;;;;;;;46.05;26.08;;;;;;;;;;5070001;28;20088;-72
2024/03/07 04:42:56;;;;;;;55.13;27.60;;;;;;;;;;5047447;28;20052;-73
2024/03/07 04:45:22;;;;;;;49.33;28.23;;;;;;;;;;5069245;28;20163;-71
2024/03/07 04:47:49;;;;;;;53.65;27.38;;;;;;;;;;5057834;28;20139;-73
2024/03/07 04:50:19;;;;;;;48.40;26.73;;;;;;;;;;5080988;28;20046;-72
2024/03/07 04:52:46;;;;;;;55.47;28.40;;;;;;;;;;5061382;28;20072;-72
2024/03/07 04:55:16;;;;;;;49.08;27.80;;;;;;;;;;5052769;28;20415;-73
2024/03/07 04:57:42;;;;;;;50.55;27.13;;;;;;;;;;5080131;28;20044;-72
2024/03/07 05:00:13;;;;;;;46.95;26.23;;;;;;;;;;5079931;28;20139;-72
2024/03/07 05:02:40;;;;;;;47.35;25.90;;;;;;;;;;5063729;28;20051;-71
2024/03/07 05:05:07;;;;;;;55.85;27.80;;;;;;;;;;5068066;28;20128;-73
2024/03/07 05:07:35;;;;;;;48.20;26.45;;;;;;;;;;5069999;28;20485;-72
2024/03/07 05:10:02;;;;;;;49.10;26.58;;;;;;;;;;5061545;28;20045;-72
2024/03/07 05:12:29;;;;;;;47.60;26.00;;;;;;;;;;5052958;28;20072;-71
2024/03/07 05:14:55;;;;;;;49.25;28.25;;;;;;;;;;5070360;28;20048;-72
2024/03/07 05:17:22;;;;;;;47.92;27.23;;;;;;;;;;5055912;28;20125;-72
2024/03/07 05:19:49;;;;;;;49.95;27.10;;;;;;;;;;5079420;28;20141;-71
2024/03/07 05:22:18;;;;;;;48.88;26.42;;;;;;;;;;5082781;28;20375;-72
2024/03/07 05:24:44;;;;;;;49.65;28.25;;;;;;;;;;5081505;28;20068;-72
2024/03/07 05:27:11;;;;;;;50.13;27.90;;;;;;;;;;5094604;28;20477;-72
2024/03/07 05:29:38;;;;;;;49.13;26.65;;;;;;;;;;5065018;28;20131;-72
2024/03/07 05:32:22;;;;;;;50.42;27.05;;;;;;;;;;5069961;28;20847;-72
2024/03/07 05:34:48;;;;;;;50.63;26.85;;;;;;;;;;5077814;28;20071;-71
2024/03/07 05:37:15;;;;;;;46.15;27.10;;;;;;;;;;5077034;28;20471;-71
2024/03/07 05:39:41;;;;;;;47.78;26.10;;;;;;;;;;5081803;28;20059;-71
2024/03/07 05:42:08;;;;;;;45.58;26.52;;;;;;;;;;5059278;28;20087;-72
2024/03/07 05:44:34;;;;;;;45.88;25.55;;;;;;;;;;5057043;28;20059;-71
2024/03/07 05:47:01;;;;;;;54.75;27.25;;;;;;;;;;5055677;28;20140;-72
2024/03/07 05:49:27;;;;;;;49.83;26.55;;;;;;;;;;5069687;28;20135;-72
2024/03/07 05:51:54;;;;;;;46.30;25.98;;;;;;;;;;5091620;28;20060;-72
2024/03/07 05:54:20;;;;;;;49.00;26.83;;;;;;;;;;5071869;28;20109;-72
2024/03/07 05:56:48;;;;;;;45.40;26.05;;;;;;;;;;5070869;28;20067;-71
2024/03/07 05:59:15;;;;;;;45.85;27.42;;;;;;;;;;5070648;28;20413;-71
2024/03/07 06:01:41;;;;;;;46.83;27.65;;;;;;;;;;5062399;28;20052;-72
2024/03/07 06:04:10;;;;;;;44.58;24.65;;;;;;;;;;5088128;28;20048;-74
2024/03/07 06:06:37;;;;;;;52.13;27.88;;;;;;;;;;5073696;28;20059;-71
2024/03/07 06:09:07;;;;;;;48.78;26.20;;;;;;;;;;5060215;28;20105;-72
2024/03/07 06:11:38;;;;;;;43.75;24.90;;;;;;;;;;5061860;28;20048;-72
2024/03/07 06:14:05;;;;;;;42.42;24.73;;;;;;;;;;5064885;28;20686;-74
2024/03/07 06:16:33;;;;;;;47.30;25.52;;;;;;;;;;5070400;28;20043;-74
2024/03/07 06:19:01;;;;;;;52.65;26.55;;;;;;;;;;5072419;28;20399;-75
2024/03/07 06:21:28;;;;;;;48.42;25.10;;;;;;;;;;5074420;28;20052;-74
2024/03/07 06:24:00;;;;;;;49.80;28.05;;;;;;;;;;5073451;28;20044;-75
2024/03/07 06:26:37;;;;;;;42.30;23.92;;;;;;;;;;5078100;28;20083;-74
2024/03/07 06:29:07;;;;;;;46.78;24.92;;;;;;;;;;5067327;28;20046;-75
2024/03/07 06:31:34;;;;;;;43.10;24.23;;;;;;;;;;5068705;28;20056;-75
2024/03/07 06:34:00;;;;;;;46.42;25.13;;;;;;;;;;5075421;28;20080;-75
2024/03/07 06:36:28;;;;;;;43.80;23.83;;;;;;;;;;5053269;28;20064;-75
2024/03/07 06:38:54;;;;;;;41.85;23.70;;;;;;;;;;5069353;28;20605;-75
2024/03/07 06:41:20;;;;;;;47.53;26.05;;;;;;;;;;5052240;28;20048;-74
2024/03/07 06:43:49;;;;;;;53.80;26.58;;;;;;;;;;5084117;28;20040;-75
2024/03/07 06:46:16;;;;;;;46.17;24.77;;;;;;;;;;5055540;28;20053;-74
2024/03/07 06:48:44;;;;;;;44.28;23.25;;;;;;;;;;5082458;28;20050;-74
2024/03/07 06:51:10;;;;;;;42.97;24.95;;;;;;;;;;5069240;28;20059;-74
2024/03/07 06:53:37;;;;;;;40.92;23.60;;;;;;;;;;5064280;28;20052;-74
2024/03/07 06:56:03;;;;;;;44.63;24.48;;;;;;;;;;5065959;28;20047;-74
2024/03/07 06:58:30;;;;;;;45.28;25.13;;;;;;;;;;5054673;28;20106;-75
2024/03/07 07:01:00;;;;;;;42.20;23.85;;;;;;;;;;5078249;28;20480;-74
2024/03/07 07:03:30;;;;;;;46.67;24.17;;;;;;;;;;5050436;28;20616;-75
2024/03/07 07:05:56;;;;;;;42.92;24.60;;;;;;;;;;5072260;28;20101;-73
2024/03/07 07:08:23;;;;;;;43.55;23.85;;;;;;;;;;5085019;28;20072;-74
2024/03/07 07:10:50;;;;;;;36.67;22.08;;;;;;;;;;5078861;28;20044;-74
2024/03/07 07:13:16;;;;;;;41.60;24.13;;;;;;;;;;5057563;28;20051;-74
2024/03/07 07:15:43;;;;;;;37.42;21.88;;;;;;;;;;5074906;28;20054;-74
2024/03/07 07:18:10;;;;;;;39.15;21.92;;;;;;;;;;5072945;28;20101;-74
2024/03/07 07:20:37;;;;;;;43.20;23.77;;;;;;;;;;5076476;28;20048;-74
2024/03/07 07:23:04;;;;;;;41.55;23.02;;;;;;;;;;5074057;28;20140;-71
2024/03/07 07:25:30;;;;;;;40.83;23.83;;;;;;;;;;5074055;28;20048;-72
2024/03/07 07:27:57;;;;;;;36.92;22.40;;;;;;;;;;5067888;28;20097;-72
2024/03/07 07:30:24;;;;;;;36.08;21.55;;;;;;;;;;5067104;28;20048;-71
2024/03/07 07:32:51;;;;;;;40.58;22.30;;;;;;;;;;5094647;28;20048;-72
2024/03/07 07:35:18;;;;;;;41.03;24.07;;;;;;;;;;5083508;28;20052;-72
2024/03/07 07:37:46;;;;;;;37.33;22.77;;;;;;;;;;5069573;28;20046;-71
2024/03/07 07:40:14;;;;;;;33.33;20.53;;;;;;;;;;5068013;28;20497;-72
2024/03/07 07:42:41;;;;;;;42.83;23.83;;;;;;;;;;5069727;28;20052;-72
2024/03/07 07:45:11;;;;;;;39.85;22.35;;;;;;;;;;5097884;27;20064;-72
2024/03/07 07:47:40;;;;;;;39.35;23.00;;;;;;;;;;5072693;28;20113;-72
2024/03/07 07:50:13;;;;;;;36.10;22.23;;;;;;;;;;5088737;28;20067;-73
2024/03/07 07:52:41;;;;;;;39.17;21.70;;;;;;;;;;5086336;28;20608;-73
2024/03/07 07:55:14;;;;;;;43.78;23.00;;;;;;;;;;5083980;28;20084;-73
2024/03/07 07:57:41;;;;;;;31.95;19.42;;;;;;;;;;5061925;28;20748;-72
2024/03/07 08:00:09;;;;;;;32.83;19.33;;;;;;;;;;5062089;28;20551;-72
2024/03/07 08:02:38;;;;;;;29.93;19.00;;;;;;;;;;5071709;28;21269;-72
2024/03/07 08:05:05;;;;;;;31.85;19.42;;;;;;;;;;5077662;28;20067;-72
2024/03/07 08:07:36;;;;;;;34.55;19.17;;;;;;;;;;5065320;28;20056;-72
2024/03/07 08:10:02;;;;;;;31.65;20.13;;;;;;;;;;5085731;28;20036;-72
2024/03/07 08:12:29;;;;;;;33.97;19.70;;;;;;;;;;5059664;28;20060;-71
2024/03/07 08:14:56;;;;;;;31.23;19.45;;;;;;;;;;5051012;28;20049;-70
2024/03/07 08:17:23;;;;;;;31.95;18.63;;;;;;;;;;5075892;28;20048;-72
2024/03/07 08:19:51;;;;;;;31.90;17.92;;;;;;;;;;5065676;28;20110;-73
2024/03/07 08:22:19;;;;;;;30.50;18.08;;;;;;;;;;5068863;28;20044;-72
2024/03/07 08:24:45;;;;;;;24.80;16.20;;;;;;;;;;5061370;28;20078;-72
2024/03/07 08:27:12;;;;;;;29.77;19.13;;;;;;;;;;5069433;28;20276;-72
2024/03/07 08:29:39;;;;;;;28.75;17.88;;;;;;;;;;5089417;28;20134;-72
2024/03/07 08:32:06;;;;;;;27.27;17.60;;;;;;;;;;5084497;28;20056;-72
2024/03/07 08:34:32;;;;;;;28.65;18.30;;;;;;;;;;5048604;28;20083;-74
2024/03/07 08:36:59;;;;;;;29.55;17.77;;;;;;;;;;5075017;28;20048;-74
2024/03/07 08:39:26;;;;;;;27.52;17.02;;;;;;;;;;5068320;28;20048;-75
2024/03/07 08:41:52;;;;;;;27.15;18.00;;;;;;;;;;5085216;28;20054;-75
2024/03/07 08:44:19;;;;;;;28.15;17.80;;;;;;;;;;5064070;28;20071;-75
2024/03/07 08:46:45;;;;;;;28.38;16.33;;;;;;;;;;5061031;28;20052;-74
2024/03/07 08:49:16;;;;;;;27.73;17.15;;;;;;;;;;5072069;28;20059;-75
2024/03/07 08:51:43;;;;;;;28.33;16.88;;;;;;;;;;5049567;28;20109;-74
2024/03/07 08:54:10;;;;;;;25.48;16.63;;;;;;;;;;5076769;28;20083;-75
2024/03/07 08:56:37;;;;;;;29.52;17.77;;;;;;;;;;5069054;28;20052;-74
2024/03/07 08:59:03;;;;;;;27.70;17.65;;;;;;;;;;5085113;28;20040;-74
2024/03/07 09:01:30;;;;;;;26.42;16.08;;;;;;;;;;5078352;28;20044;-76
2024/03/07 09:03:59;;;;;;;23.38;14.50;;;;;;;;;;5067863;28;20079;-74
2024/03/07 09:06:25;;;;;;;23.77;15.77;;;;;;;;;;5084491;28;20396;-76
2024/03/07 09:08:52;;;;;;;26.05;16.80;;;;;;;;;;5071533;28;20056;-75
2024/03/07 09:11:18;;;;;;;26.17;16.80;;;;;;;;;;5068837;28;20484;-75
2024/03/07 09:13:46;;;;;;;27.88;16.63;;;;;;;;;;5075638;28;20052;-75
2024/03/07 09:16:12;;;;;;;26.50;17.08;;;;;;;;;;5060132;28;20048;-75
2024/03/07 09:18:39;;;;;;;23.63;15.70;;;;;;;;;;5080474;28;20722;-75
2024/03/07 09:21:06;;;;;;;24.48;15.82;;;;;;;;;;5070806;28;20040;-73
2024/03/07 09:23:32;;;;;;;23.38;15.40;;;;;;;;;;5077750;28;20159;-75
2024/03/07 09:25:59;;;;;;;27.02;16.30;;;;;;;;;;5070373;28;20039;-75
2024/03/07 09:28:25;;;;;;;26.05;16.25;;;;;;;;;;5078829;28;20106;-76
2024/03/07 09:30:52;;;;;;;26.95;16.48;;;;;;;;;;5068143;28;20048;-75
2024/03/07 09:33:19;;;;;;;23.77;15.00;;;;;;;;;;5075350;28;20124;-75
2024/03/07 09:35:46;;;;;;;24.27;14.93;;;;;;;;;;5087791;28;20048;-74
2024/03/07 09:38:12;;;;;;;23.48;15.48;;;;;;;;;;5064790;28;20083;-74
2024/03/07 09:40:40;;;;;;;23.63;15.43;;;;;;;;;;5081986;28;20128;-75
2024/03/07 09:43:09;;;;;;;22.83;14.77;;;;;;;;;;5080049;28;20048;-75
2024/03/07 09:45:38;;;;;;;23.80;14.88;;;;;;;;;;5071103;28;20048;-75
2024/03/07 09:48:04;;;;;;;;;;;;;;;;;;5085949;28;20135;-75
2024/03/07 09:50:32;;;;;;;21.45;13.48;;;;;;;;;;5082645;28;19920;-75
2024/03/07 09:53:00;;;;;;;20.38;13.80;;;;;;;;;;5077356;28;20416;-75
2024/03/07 09:55:27;;;;;;;28.02;16.65;;;;;;;;;;5073790;28;20047;-75
2024/03/07 09:57:55;;;;;;;21.77;13.80;;;;;;;;;;5083603;28;20412;-75
2024/03/07 10:00:24;;;;;;;21.08;13.95;;;;;;;;;;5074890;28;20044;-74
2024/03/07 10:02:56;;;;;;;22.92;15.45;;;;;;;;;;5083061;28;20098;-75
2024/03/07 10:05:26;;;;;;;23.13;14.80;;;;;;;;;;5076141;28;20050;-75
2024/03/07 10:07:53;;;;;;;22.33;15.35;;;;;;;;;;5071379;28;20098;-75
2024/03/07 10:10:21;;;;;;;21.90;14.13;;;;;;;;;;5086824;28;20083;-74
2024/03/07 10:12:49;;;;;;;21.13;13.63;;;;;;;;;;5077582;28;20732;-75
2024/03/07 10:15:17;;;;;;;25.23;15.55;;;;;;;;;;5068081;28;20480;-75
2024/03/07 10:17:44;;;;;;;22.15;15.30;;;;;;;;;;5077149;28;20040;-75
2024/03/07 10:20:15;;;;;;;26.45;14.43;;;;;;;;;;5064560;28;20400;-75
2024/03/07 10:22:42;;;;;;;27.15;15.55;;;;;;;;;;5085118;28;20040;-75
2024/03/07 10:25:09;;;;;;;24.23;15.27;;;;;;;;;;5071243;28;20470;-75
2024/03/07 10:27:37;;;;;;;24.10;15.43;;;;;;;;;;5065143;28;20053;-75
2024/03/07 10:30:04;;;;;;;21.15;13.60;;;;;;;;;;5060211;28;20044;-74
2024/03/07 10:32:31;;;;;;;22.70;15.15;;;;;;;;;;5082610;28;20050;-75
2024/03/07 10:34:58;;;;;;;22.13;13.88;;;;;;;;;;5089608;28;20385;-75
2024/03/07 10:37:25;;;;;;;24.58;15.75;;;;;;;;;;5065158;28;20079;-75
2024/03/07 10:39:52;;;;;;;23.63;15.02;;;;;;;;;;5084501;28;20048;-75
2024/03/07 10:42:19;;;;;;;23.73;15.30;;;;;;;;;;5084144;28;20098;-76
2024/03/07 10:44:47;;;;;;;23.65;14.60;;;;;;;;;;5067721;28;20048;-75
2024/03/07 10:47:20;;;;;;;21.73;13.88;;;;;;;;;;5077167;28;20689;-75
2024/03/07 10:50:14;;;;;;;24.10;15.05;;;;;;;;;;5067294;28;20126;-74
2024/03/07 10:52:58;;;;;;;25.48;14.52;;;;;;;;;;5081184;28;20469;-74
2024/03/07 10:55:48;;;;;;;24.05;15.35;;;;;;;;;;5071916;28;20117;-74
2024/03/07 10:58:25;;;;;;;24.92;15.50;;;;;;;;;;5076436;28;20051;-73
2024/03/07 11:00:56;;;;;;;24.35;14.50;;;;;;;;;;5065737;28;20440;-73
2024/03/07 11:03:23;;;;;;;24.77;15.38;;;;;;;;;;5077861;28;20044;-73
2024/03/07 11:05:50;;;;;;;22.98;14.43;;;;;;;;;;5068377;28;20096;-73
2024/03/07 11:08:16;;;;;;;23.27;14.38;;;;;;;;;;5073527;28;20423;-73
2024/03/07 11:10:43;;;;;;;21.95;14.70;;;;;;;;;;5077412;28;20393;-73
2024/03/07 11:13:12;;;;;;;21.17;13.57;;;;;;;;;;5073213;28;20454;-73
2024/03/07 11:15:41;;;;;;;23.70;14.85;;;;;;;;;;5071094;28;20064;-73
2024/03/07 11:18:09;;;;;;;23.83;14.68;;;;;;;;;;5065021;28;20573;-73
2024/03/07 11:20:37;;;;;;;21.55;13.93;;;;;;;;;;5053140;28;20064;-73
2024/03/07 11:23:22;;;;;;;23.48;14.52;;;;;;;;;;5067170;28;20709;-73
2024/03/07 11:25:49;;;;;;;27.38;15.10;;;;;;;;;;5062929;28;20067;-73
2024/03/07 11:28:16;;;;;;;23.98;13.95;;;;;;;;;;5072022;28;20048;-73
2024/03/07 11:30:43;;;;;;;22.35;13.25;;;;;;;;;;5074334;28;20056;-73
2024/03/07 11:33:13;;;;;;;25.63;15.05;;;;;;;;;;5069404;28;20119;-73
2024/03/07 11:35:48;;;;;;;22.50;14.32;;;;;;;;;;5068696;28;20059;-74
2024/03/07 11:38:15;;;;;;;20.85;14.05;;;;;;;;;;5081246;28;20124;-73
2024/03/07 11:40:43;;;;;;;22.23;15.05;;;;;;;;;;5054216;28;20125;-74
2024/03/07 11:43:11;;;;;;;21.15;13.00;;;;;;;;;;5075013;28;20046;-73
2024/03/07 11:45:44;;;;;;;18.92;13.48;;;;;;;;;;5080971;28;20123;-74
2024/03/07 11:48:11;;;;;;;20.30;12.88;;;;;;;;;;5072877;28;20048;-74
2024/03/07 11:50:39;;;;;;;23.10;12.68;;;;;;;;;;5080371;28;20049;-74
2024/03/07 11:53:06;;;;;;;21.65;13.63;;;;;;;;;;5071468;28;20052;-74
2024/03/07 11:55:41;;;;;;;21.13;13.35;;;;;;;;;;5084422;28;20125;-73
2024/03/07 11:58:12;;;;;;;21.48;13.20;;;;;;;;;;5071099;28;20060;-74
2024/03/07 12:00:44;;;;;;;18.25;12.98;;;;;;;;;;5073353;28;20048;-74
2024/03/07 12:03:16;;;;;;;20.40;13.52;;;;;;;;;;5066496;28;20492;-75
2024/03/07 12:05:44;;;;;;;21.20;13.68;;;;;;;;;;5061521;28;20079;-76
2024/03/07 12:08:12;;;;;;;19.08;12.80;;;;;;;;;;5070253;28;20044;-74
2024/03/07 12:10:39;;;;;;;20.88;12.82;;;;;;;;;;5068089;28;20071;-75
2024/03/07 12:13:07;;;;;;;19.02;12.82;;;;;;;;;;5068071;28;20052;-74
2024/03/07 12:15:34;;;;;;;17.90;12.15;;;;;;;;;;5074875;28;20051;-74
2024/03/07 12:18:02;;;;;;;20.75;11.93;;;;;;;;;;5055726;28;20067;-76
2024/03/07 12:20:33;;;;;;;17.02;11.82;;;;;;;;;;5073891;28;20052;-74
2024/03/07 12:23:05;;;;;;;17.25;11.90;;;;;;;;;;5062462;28;20043;-74
2024/03/07 12:25:32;;;;;;;20.10;13.38;;;;;;;;;;5086396;28;20492;-74
2024/03/07 12:28:02;;;;;;;16.25;12.18;;;;;;;;;;5085116;28;20435;-76
2024/03/07 12:30:33;;;;;;;18.98;12.40;;;;;;;;;;5074546;28;20048;-74
2024/03/07 12:33:00;;;;;;;15.90;11.77;;;;;;;;;;5076494;28;20515;-74
2024/03/07 12:35:27;;;;;;;16.23;12.10;;;;;;;;;;5066206;28;20054;-74
2024/03/07 12:37:54;;;;;;;17.30;12.40;;;;;;;;;;5075533;28;20048;-73
2024/03/07 12:40:23;;;;;;;18.05;12.73;;;;;;;;;;5064006;28;20064;-74
2024/03/07 12:42:55;;;;;;;19.63;12.95;;;;;;;;;;5080123;28;20051;-74
2024/03/07 12:45:22;;;;;;;18.92;12.57;;;;;;;;;;5078429;28;20123;-74
2024/03/07 12:47:52;;;;;;;17.35;12.50;;;;;;;;;;5067120;28;20048;-74
2024/03/07 12:50:22;;;;;;;20.45;13.40;;;;;;;;;;5077064;28;20683;-74
2024/03/07 12:52:52;;;;;;;16.55;11.77;;;;;;;;;;5066614;28;20048;-73
2024/03/07 12:55:19;;;;;;;18.52;13.70;;;;;;;;;;5075730;28;20044;-73
2024/03/07 12:57:46;;;;;;;18.88;13.50;;;;;;;;;;5051810;28;20088;-75
2024/03/07 13:00:19;;;;;;;19.02;12.75;;;;;;;;;;5074474;28;20056;-75
2024/03/07 13:02:46;;;;;;;20.75;13.75;;;;;;;;;;5061966;28;20050;-76
2024/03/07 13:05:18;;;;;;;19.77;13.90;;;;;;;;;;5069019;28;20056;-75
2024/03/07 13:07:45;;;;;;;19.40;14.05;;;;;;;;;;5059187;28;20625;-75
2024/03/07 13:10:14;;;;;;;18.75;13.88;;;;;;;;;;5071145;28;20044;-75
2024/03/07 13:12:43;;;;;;;19.50;13.85;;;;;;;;;;5081867;28;20052;-75
2024/03/07 13:15:10;;;;;;;21.20;13.75;;;;;;;;;;5060962;28;20100;-75
2024/03/07 13:17:39;;;;;;;19.55;13.65;;;;;;;;;;5069237;28;20051;-72
2024/03/07 13:20:11;;;;;;;22.13;15.15;;;;;;;;;;5056159;28;20044;-75
2024/03/07 13:22:39;;;;;;;397.20;219.57;;;;;;;;;;5059940;28;20376;-77
2024/03/07 13:25:13;;;;;;;27.23;19.13;;;;;;;;;;5073189;28;20158;-74
2024/03/07 13:27:41;;;;;;;22.88;15.88;;;;;;;;;;5079582;28;20127;-75
2024/03/07 13:30:07;;;;;;;17.97;13.43;;;;;;;;;;5070350;28;20056;-75
2024/03/07 13:32:34;;;;;;;19.95;13.93;;;;;;;;;;5068738;28;20285;-74
2024/03/07 13:35:01;;;;;;;19.63;13.85;;;;;;;;;;5043767;28;20408;-74
2024/03/07 13:37:28;;;;;;;20.42;14.15;;;;;;;;;;5068841;28;20056;-74
2024/03/07 13:39:58;;;;;;;18.83;13.27;;;;;;;;;;5071441;28;20124;-74
2024/03/07 13:42:25;;;;;;;18.88;13.57;;;;;;;;;;5073693;28;20053;-73
2024/03/07 13:44:51;;;;;;;17.95;13.07;;;;;;;;;;5070253;28;20120;-73
2024/03/07 13:47:20;;;;;;;20.20;13.65;;;;;;;;;;5072845;28;20048;-72
2024/03/07 13:49:46;;;;;;;18.67;13.20;;;;;;;;;;5080911;28;20101;-73
2024/03/07 13:52:18;;;;;;;17.13;12.70;;;;;;;;;;5070720;28;20139;-73
2024/03/07 13:54:45;;;;;;;20.08;12.65;;;;;;;;;;5076429;28;20423;-73
2024/03/07 13:57:19;;;;;;;16.63;11.77;;;;;;;;;;5056626;28;20378;-73
2024/03/07 13:59:56;;;;;;;16.10;12.10;;;;;;;;;;5072032;28;20978;-73
2024/03/07 14:02:41;;;;;;;19.30;13.45;;;;;;;;;;5078351;28;20056;-73
2024/03/07 14:05:22;;;;;;;20.02;12.52;;;;;;;;;;5077085;28;20048;-73
2024/03/07 14:08:09;;;;;;;16.88;12.43;;;;;;;;;;5076331;28;20044;-73
2024/03/07 14:10:45;;;;;;;17.40;12.38;;;;;;;;;;5064187;28;20399;-73
2024/03/07 14:13:31;;;;;;;17.88;12.00;;;;;;;;;;5073105;28;20488;-72
2024/03/07 14:16:20;;;;;;;18.60;12.65;;;;;;;;;;5065596;28;20048;-71
2024/03/07 14:19:12;;;;;;;17.02;12.65;;;;;;;;;;5088512;28;20119;-72
2024/03/07 14:21:48;;;;;;;16.48;11.75;;;;;;;;;;5058163;28;20047;-72